Vagabond — WDD3483 — position and weather

sailwx.info

Track history (hours):
 
Tides and Currents Weather Stations Pressure Air Temp Water Temp Dewpoint Dewpoint Depression Visibility Wind Speed Wind Dir Waves Ship Positions

Vagabond

More information available from US FCC via Universal Licensing System and Coast Guard Vessel Documentation Center.

Last reported at 2014-Sep-08 23:31 UTC. Time now 2014-Sep-20 18:02 UTC.
Position N 47°38' W 122°23'.
Warning: this ship's position is 11 days out of date.

Length 27 m.

Type: Pleasure craft. MMSI: 367132020.

Date/timePositionNaut miles runAvg speedWind from/ knotsBaromVisibWave heightAir tempDewpointWater temp
2014-Sep-08 23:31N 47°38' W 122°23'0 0.0
2014-Sep-08 01:12N 47°38' W 122°23'1015.3
2014-Sep-08 00:33N 47°47' W 122°25'57 4.0
2014-Sep-07 10:03N 48°37' W 123°09'0 0.0
2014-Sep-07 09:33N 48°37' W 123°09'0 0.0
2014-Sep-07 07:21N 48°37' W 123°09'1 0.1
2014-Sep-06 19:19N 48°36' W 123°10'1012.0
2014-Sep-06 18:27N 48°27' W 123°03'3717.8
2014-Sep-06 16:22N 47°56' W 122°32'1416.8
2014-Sep-06 15:34N 47°43' W 122°26'6 0.2
2014-Sep-05 02:29N 47°38' W 122°23'0 0.2
2014-Sep-05 00:20N 47°37' W 122°23'0 0.4
2014-Sep-04 23:08N 47°38' W 122°24'1 1.9
2014-Sep-04 22:32N 47°37' W 122°24'0 0.7
2014-Sep-04 22:14N 47°37' W 122°24'1 1.1
2014-Sep-04 21:31N 47°37' W 122°25'111.6
2014-Sep-04 21:28N 47°37' W 122°24'1 0.6
2014-Sep-04 20:05N 47°38' W 122°23'0 0.0
2014-Sep-03 01:23N 47°38' W 122°23'1 0.0
2014-Sep-02 02:29N 47°38' W 122°24'0 5.7
2014-Sep-02 02:28N 47°38' W 122°24'1314.1
2014-Sep-02 01:33N 47°51' W 122°27'6515.1
2014-Sep-01 21:17N 48°52' W 122°55'11 6.4
2014-Sep-01 19:32N 48°58' W 123°10'1515.2
2014-Sep-01 18:33N 49°10' W 123°24'1211.9
2014-Sep-01 17:31N 49°16' W 123°07'0 0.2
2014-Sep-01 16:31N 49°16' W 123°07'0 0.0
2014-Sep-01 15:31N 49°16' W 123°07'0 0.0
2014-Sep-01 14:31N 49°16' W 123°07'0 0.0
2014-Sep-01 13:31N 49°16' W 123°07'0 0.0
2014-Sep-01 12:31N 49°16' W 123°07'0 0.0
2014-Sep-01 11:31N 49°16' W 123°07'0 0.0
2014-Sep-01 10:31N 49°16' W 123°07'0 0.0
2014-Sep-01 09:31N 49°16' W 123°07'0 0.0
2014-Sep-01 08:31N 49°16' W 123°07'0 0.0
2014-Sep-01 07:31N 49°16' W 123°07'0 0.0
2014-Sep-01 06:31N 49°16' W 123°07'0 0.0
2014-Sep-01 05:31N 49°16' W 123°07'0 0.0
2014-Sep-01 04:28N 49°16' W 123°07'0 0.0
2014-Sep-01 03:28N 49°16' W 123°07'0 0.0
2014-Sep-01 02:31N 49°16' W 123°07'0 0.0
2014-Sep-01 01:31N 49°16' W 123°07'0 0.0
2014-Sep-01 00:31N 49°16' W 123°07'0 0.0
2014-Aug-31 23:31N 49°16' W 123°07'0 0.0
2014-Aug-31 22:31N 49°16' W 123°07'0 0.0
2014-Aug-31 21:31N 49°16' W 123°07'0 0.0
2014-Aug-31 20:28N 49°16' W 123°07'0 0.0
2014-Aug-31 19:31N 49°16' W 123°07'0 0.0
2014-Aug-31 18:31N 49°16' W 123°07'0 0.0
2014-Aug-31 17:31N 49°16' W 123°07'0 0.0
2014-Aug-31 16:28N 49°16' W 123°07'0 0.0
2014-Aug-31 15:31N 49°16' W 123°07'0 0.0
2014-Aug-31 14:31N 49°16' W 123°07'0 0.0
2014-Aug-31 13:28N 49°16' W 123°07'0 0.0
2014-Aug-31 12:31N 49°16' W 123°07'0 0.0
2014-Aug-31 11:31N 49°16' W 123°07'0 0.0
2014-Aug-31 10:31N 49°16' W 123°07'0 0.0
2014-Aug-31 09:31N 49°16' W 123°07'0 0.0
2014-Aug-31 08:31N 49°16' W 123°07'0 0.0
2014-Aug-31 07:31N 49°16' W 123°07'0 0.0
2014-Aug-31 06:31N 49°16' W 123°07'0 0.0
2014-Aug-31 05:31N 49°16' W 123°07'0 0.0
2014-Aug-31 04:31N 49°16' W 123°07'0 0.0
2014-Aug-31 03:31N 49°16' W 123°07'0 0.0
2014-Aug-31 02:31N 49°16' W 123°07'0 0.0
2014-Aug-31 01:28N 49°16' W 123°07'0 0.0
2014-Aug-31 00:31N 49°16' W 123°07'0 0.0
2014-Aug-30 23:31N 49°16' W 123°07'0 0.0
2014-Aug-30 22:31N 49°16' W 123°07'0 0.0
2014-Aug-30 21:31N 49°16' W 123°07'0 0.0
2014-Aug-30 20:31N 49°16' W 123°07'0 0.0
2014-Aug-30 19:31N 49°16' W 123°07'0 0.0
2014-Aug-30 18:31N 49°16' W 123°07'0 0.0
2014-Aug-30 17:31N 49°16' W 123°07'0 0.0
2014-Aug-30 16:31N 49°16' W 123°07'0 0.0
2014-Aug-30 15:31N 49°16' W 123°07'0 0.0
2014-Aug-30 14:31N 49°16' W 123°07'0 0.0
2014-Aug-30 13:31N 49°16' W 123°07'0 0.0
2014-Aug-30 12:31N 49°16' W 123°07'0 0.0
2014-Aug-30 11:31N 49°16' W 123°07'0 0.0
2014-Aug-30 10:31N 49°16' W 123°07'0 0.0
2014-Aug-30 09:31N 49°16' W 123°07'0 0.0
2014-Aug-30 08:31N 49°16' W 123°07'0 0.0
2014-Aug-30 07:31N 49°16' W 123°07'0 0.0
2014-Aug-30 06:28N 49°16' W 123°07'0 0.0
2014-Aug-30 05:31N 49°16' W 123°07'0 0.0
2014-Aug-30 04:31N 49°16' W 123°07'0 0.0
2014-Aug-30 03:31N 49°16' W 123°07'0 0.0
2014-Aug-30 02:31N 49°16' W 123°07'0 0.0
2014-Aug-30 01:31N 49°16' W 123°07'1 0.9
2014-Aug-30 00:31N 49°16' W 123°08'1010.1
2014-Aug-29 23:32N 49°10' W 123°20'  
Track history (hours):
 
Tides and Currents Weather Stations Pressure Air Temp Water Temp Dewpoint Dewpoint Depression Visibility Wind Speed Wind Dir Waves Ship Positions

Vagabond

More information available from US FCC via Universal Licensing System and Coast Guard Vessel Documentation Center.

Last reported at 2014-Sep-08 23:31 UTC. Time now 2014-Sep-20 18:02 UTC.
Position N 47°38' W 122°23'.
Warning: this ship's position is 11 days out of date.

Length 27 m.

Type: Pleasure craft. MMSI: 367132020.

Date/timePositionNaut miles runAvg speedWind from/ knotsBaromVisibWave heightAir tempDewpointWater temp
2014-Sep-08 23:31N 47°38' W 122°23'0 0.0
2014-Sep-08 01:12N 47°38' W 122°23'1015.3
2014-Sep-08 00:33N 47°47' W 122°25'57 4.0
2014-Sep-07 10:03N 48°37' W 123°09'0 0.0
2014-Sep-07 09:33N 48°37' W 123°09'0 0.0
2014-Sep-07 07:21N 48°37' W 123°09'1 0.1
2014-Sep-06 19:19N 48°36' W 123°10'1012.0
2014-Sep-06 18:27N 48°27' W 123°03'3717.8
2014-Sep-06 16:22N 47°56' W 122°32'1416.8
2014-Sep-06 15:34N 47°43' W 122°26'6 0.2
2014-Sep-05 02:29N 47°38' W 122°23'0 0.2
2014-Sep-05 00:20N 47°37' W 122°23'0 0.4
2014-Sep-04 23:08N 47°38' W 122°24'1 1.9
2014-Sep-04 22:32N 47°37' W 122°24'0 0.7
2014-Sep-04 22:14N 47°37' W 122°24'1 1.1
2014-Sep-04 21:31N 47°37' W 122°25'111.6
2014-Sep-04 21:28N 47°37' W 122°24'1 0.6
2014-Sep-04 20:05N 47°38' W 122°23'0 0.0
2014-Sep-03 01:23N 47°38' W 122°23'1 0.0
2014-Sep-02 02:29N 47°38' W 122°24'0 5.7
2014-Sep-02 02:28N 47°38' W 122°24'1314.1
2014-Sep-02 01:33N 47°51' W 122°27'6515.1
2014-Sep-01 21:17N 48°52' W 122°55'11 6.4
2014-Sep-01 19:32N 48°58' W 123°10'1515.2
2014-Sep-01 18:33N 49°10' W 123°24'1211.9
2014-Sep-01 17:31N 49°16' W 123°07'0 0.2
2014-Sep-01 16:31N 49°16' W 123°07'0 0.0
2014-Sep-01 15:31N 49°16' W 123°07'0 0.0
2014-Sep-01 14:31N 49°16' W 123°07'0 0.0
2014-Sep-01 13:31N 49°16' W 123°07'0 0.0
2014-Sep-01 12:31N 49°16' W 123°07'0 0.0
2014-Sep-01 11:31N 49°16' W 123°07'0 0.0
2014-Sep-01 10:31N 49°16' W 123°07'0 0.0
2014-Sep-01 09:31N 49°16' W 123°07'0 0.0
2014-Sep-01 08:31N 49°16' W 123°07'0 0.0
2014-Sep-01 07:31N 49°16' W 123°07'0 0.0
2014-Sep-01 06:31N 49°16' W 123°07'0 0.0
2014-Sep-01 05:31N 49°16' W 123°07'0 0.0
2014-Sep-01 04:28N 49°16' W 123°07'0 0.0
2014-Sep-01 03:28N 49°16' W 123°07'0 0.0
2014-Sep-01 02:31N 49°16' W 123°07'0 0.0
2014-Sep-01 01:31N 49°16' W 123°07'0 0.0
2014-Sep-01 00:31N 49°16' W 123°07'0 0.0
2014-Aug-31 23:31N 49°16' W 123°07'0 0.0
2014-Aug-31 22:31N 49°16' W 123°07'0 0.0
2014-Aug-31 21:31N 49°16' W 123°07'0 0.0
2014-Aug-31 20:28N 49°16' W 123°07'0 0.0
2014-Aug-31 19:31N 49°16' W 123°07'0 0.0
2014-Aug-31 18:31N 49°16' W 123°07'0 0.0
2014-Aug-31 17:31N 49°16' W 123°07'0 0.0
2014-Aug-31 16:28N 49°16' W 123°07'0 0.0
2014-Aug-31 15:31N 49°16' W 123°07'0 0.0
2014-Aug-31 14:31N 49°16' W 123°07'0 0.0
2014-Aug-31 13:28N 49°16' W 123°07'0 0.0
2014-Aug-31 12:31N 49°16' W 123°07'0 0.0
2014-Aug-31 11:31N 49°16' W 123°07'0 0.0
2014-Aug-31 10:31N 49°16' W 123°07'0 0.0
2014-Aug-31 09:31N 49°16' W 123°07'0 0.0
2014-Aug-31 08:31N 49°16' W 123°07'0 0.0
2014-Aug-31 07:31N 49°16' W 123°07'0 0.0
2014-Aug-31 06:31N 49°16' W 123°07'0 0.0
2014-Aug-31 05:31N 49°16' W 123°07'0 0.0
2014-Aug-31 04:31N 49°16' W 123°07'0 0.0
2014-Aug-31 03:31N 49°16' W 123°07'0 0.0
2014-Aug-31 02:31N 49°16' W 123°07'0 0.0
2014-Aug-31 01:28N 49°16' W 123°07'0 0.0
2014-Aug-31 00:31N 49°16' W 123°07'0 0.0
2014-Aug-30 23:31N 49°16' W 123°07'0 0.0
2014-Aug-30 22:31N 49°16' W 123°07'0 0.0
2014-Aug-30 21:31N 49°16' W 123°07'0 0.0
2014-Aug-30 20:31N 49°16' W 123°07'0 0.0
2014-Aug-30 19:31N 49°16' W 123°07'0 0.0
2014-Aug-30 18:31N 49°16' W 123°07'0 0.0
2014-Aug-30 17:31N 49°16' W 123°07'0 0.0
2014-Aug-30 16:31N 49°16' W 123°07'0 0.0
2014-Aug-30 15:31N 49°16' W 123°07'0 0.0
2014-Aug-30 14:31N 49°16' W 123°07'0 0.0
2014-Aug-30 13:31N 49°16' W 123°07'0 0.0
2014-Aug-30 12:31N 49°16' W 123°07'0 0.0
2014-Aug-30 11:31N 49°16' W 123°07'0 0.0
2014-Aug-30 10:31N 49°16' W 123°07'0 0.0
2014-Aug-30 09:31N 49°16' W 123°07'0 0.0
2014-Aug-30 08:31N 49°16' W 123°07'0 0.0
2014-Aug-30 07:31N 49°16' W 123°07'0 0.0
2014-Aug-30 06:28N 49°16' W 123°07'0 0.0
2014-Aug-30 05:31N 49°16' W 123°07'0 0.0
2014-Aug-30 04:31N 49°16' W 123°07'0 0.0
2014-Aug-30 03:31N 49°16' W 123°07'0 0.0
2014-Aug-30 02:31N 49°16' W 123°07'0 0.0
2014-Aug-30 01:31N 49°16' W 123°07'1 0.9
2014-Aug-30 00:31N 49°16' W 123°08'1010.1
2014-Aug-29 23:32N 49°10' W 123°20'  

Dump ship's entire track history